sensor_id;sensor_type;location;lat;lon;timestamp;P1;durP1;ratioP1;P2;durP2;ratioP2
40757;SDS011;26462;47.384;19.218;2023-09-08T00:01:08;7.50;;;3.15;;
40757;SDS011;26462;47.384;19.218;2023-09-08T00:03:35;6.05;;;3.17;;
40757;SDS011;26462;47.384;19.218;2023-09-08T00:06:02;7.35;;;3.20;;
40757;SDS011;26462;47.384;19.218;2023-09-08T00:08:30;7.35;;;2.92;;
40757;SDS011;26462;47.384;19.218;2023-09-08T00:10:58;5.88;;;3.47;;
40757;SDS011;26462;47.384;19.218;2023-09-08T00:13:25;5.82;;;3.05;;
40757;SDS011;26462;47.384;19.218;2023-09-08T00:15:52;7.25;;;3.65;;
40757;SDS011;26462;47.384;19.218;2023-09-08T00:18:19;6.40;;;2.90;;
40757;SDS011;26462;47.384;19.218;2023-09-08T00:20:47;6.35;;;3.40;;
40757;SDS011;26462;47.384;19.218;2023-09-08T00:23:14;5.95;;;3.33;;
40757;SDS011;26462;47.384;19.218;2023-09-08T00:25:41;6.78;;;3.13;;
40757;SDS011;26462;47.384;19.218;2023-09-08T00:28:08;7.13;;;3.20;;
40757;SDS011;26462;47.384;19.218;2023-09-08T00:30:35;9.98;;;3.03;;
40757;SDS011;26462;47.384;19.218;2023-09-08T00:33:02;6.32;;;3.28;;
40757;SDS011;26462;47.384;19.218;2023-09-08T00:35:30;8.07;;;3.15;;
40757;SDS011;26462;47.384;19.218;2023-09-08T00:37:57;5.00;;;2.92;;
40757;SDS011;26462;47.384;19.218;2023-09-08T00:40:24;6.40;;;3.33;;
40757;SDS011;26462;47.384;19.218;2023-09-08T00:42:54;5.18;;;2.72;;
40757;SDS011;26462;47.384;19.218;2023-09-08T00:45:21;7.40;;;3.95;;
40757;SDS011;26462;47.384;19.218;2023-09-08T00:47:49;7.30;;;3.97;;
40757;SDS011;26462;47.384;19.218;2023-09-08T00:50:17;6.82;;;3.35;;
40757;SDS011;26462;47.384;19.218;2023-09-08T00:52:45;6.47;;;3.83;;
40757;SDS011;26462;47.384;19.218;2023-09-08T00:55:12;7.25;;;3.63;;
40757;SDS011;26462;47.384;19.218;2023-09-08T00:57:39;7.57;;;4.47;;
40757;SDS011;26462;47.384;19.218;2023-09-08T01:00:07;7.65;;;4.28;;
40757;SDS011;26462;47.384;19.218;2023-09-08T01:02:35;6.13;;;3.60;;
40757;SDS011;26462;47.384;19.218;2023-09-08T01:05:03;5.97;;;3.50;;
40757;SDS011;26462;47.384;19.218;2023-09-08T01:07:30;7.47;;;4.28;;
40757;SDS011;26462;47.384;19.218;2023-09-08T01:09:59;7.45;;;3.75;;
40757;SDS011;26462;47.384;19.218;2023-09-08T01:12:30;9.10;;;3.47;;
40757;SDS011;26462;47.384;19.218;2023-09-08T01:14:58;6.82;;;3.90;;
40757;SDS011;26462;47.384;19.218;2023-09-08T01:17:25;5.72;;;3.55;;
40757;SDS011;26462;47.384;19.218;2023-09-08T01:19:55;5.68;;;3.05;;
40757;SDS011;26462;47.384;19.218;2023-09-08T01:25:52;5.70;;;3.42;;
40757;SDS011;26462;47.384;19.218;2023-09-08T01:28:26;6.75;;;3.10;;
40757;SDS011;26462;47.384;19.218;2023-09-08T01:30:53;5.10;;;3.30;;
40757;SDS011;26462;47.384;19.218;2023-09-08T01:33:23;7.18;;;3.40;;
40757;SDS011;26462;47.384;19.218;2023-09-08T01:35:51;6.78;;;3.30;;
40757;SDS011;26462;47.384;19.218;2023-09-08T01:38:20;8.80;;;3.72;;
40757;SDS011;26462;47.384;19.218;2023-09-08T01:40:48;6.70;;;3.60;;
40757;SDS011;26462;47.384;19.218;2023-09-08T01:43:15;6.30;;;3.58;;
40757;SDS011;26462;47.384;19.218;2023-09-08T01:45:42;6.72;;;3.53;;
40757;SDS011;26462;47.384;19.218;2023-09-08T01:48:10;7.03;;;3.50;;
40757;SDS011;26462;47.384;19.218;2023-09-08T01:50:37;7.80;;;3.38;;
40757;SDS011;26462;47.384;19.218;2023-09-08T01:53:04;8.40;;;3.35;;
40757;SDS011;26462;47.384;19.218;2023-09-08T01:55:31;7.35;;;3.58;;
40757;SDS011;26462;47.384;19.218;2023-09-08T01:57:59;5.53;;;3.35;;
40757;SDS011;26462;47.384;19.218;2023-09-08T02:00:26;6.75;;;3.72;;
40757;SDS011;26462;47.384;19.218;2023-09-08T02:02:54;6.68;;;3.67;;
40757;SDS011;26462;47.384;19.218;2023-09-08T02:05:21;5.93;;;3.50;;
40757;SDS011;26462;47.384;19.218;2023-09-08T02:07:49;7.80;;;3.67;;
40757;SDS011;26462;47.384;19.218;2023-09-08T02:10:16;11.43;;;4.28;;
40757;SDS011;26462;47.384;19.218;2023-09-08T02:12:45;7.55;;;3.85;;
40757;SDS011;26462;47.384;19.218;2023-09-08T02:15:12;8.48;;;3.70;;
40757;SDS011;26462;47.384;19.218;2023-09-08T02:17:40;5.43;;;3.33;;
40757;SDS011;26462;47.384;19.218;2023-09-08T02:20:08;8.85;;;4.30;;
40757;SDS011;26462;47.384;19.218;2023-09-08T02:22:37;5.38;;;3.30;;
40757;SDS011;26462;47.384;19.218;2023-09-08T02:25:04;7.88;;;3.63;;
40757;SDS011;26462;47.384;19.218;2023-09-08T02:27:31;6.70;;;3.25;;
40757;SDS011;26462;47.384;19.218;2023-09-08T02:29:59;5.60;;;2.95;;
40757;SDS011;26462;47.384;19.218;2023-09-08T02:32:29;5.55;;;3.50;;
40757;SDS011;26462;47.384;19.218;2023-09-08T02:34:56;6.82;;;3.70;;
40757;SDS011;26462;47.384;19.218;2023-09-08T02:37:23;6.15;;;3.17;;
40757;SDS011;26462;47.384;19.218;2023-09-08T02:39:50;7.00;;;3.40;;
40757;SDS011;26462;47.384;19.218;2023-09-08T02:42:18;10.73;;;4.28;;
40757;SDS011;26462;47.384;19.218;2023-09-08T02:44:45;6.07;;;3.15;;
40757;SDS011;26462;47.384;19.218;2023-09-08T02:47:12;6.20;;;3.92;;
40757;SDS011;26462;47.384;19.218;2023-09-08T02:49:41;5.40;;;2.90;;
40757;SDS011;26462;47.384;19.218;2023-09-08T02:52:10;5.72;;;3.17;;
40757;SDS011;26462;47.384;19.218;2023-09-08T02:54:37;5.95;;;3.53;;
40757;SDS011;26462;47.384;19.218;2023-09-08T02:57:04;6.43;;;4.00;;
40757;SDS011;26462;47.384;19.218;2023-09-08T02:59:33;6.78;;;3.78;;
40757;SDS011;26462;47.384;19.218;2023-09-08T03:02:00;6.57;;;3.70;;
40757;SDS011;26462;47.384;19.218;2023-09-08T03:04:27;5.47;;;3.47;;
40757;SDS011;26462;47.384;19.218;2023-09-08T03:06:56;6.57;;;3.75;;
40757;SDS011;26462;47.384;19.218;2023-09-08T03:09:23;8.05;;;4.38;;
40757;SDS011;26462;47.384;19.218;2023-09-08T03:11:50;9.52;;;4.18;;
40757;SDS011;26462;47.384;19.218;2023-09-08T03:14:17;7.32;;;3.97;;
40757;SDS011;26462;47.384;19.218;2023-09-08T03:16:44;6.97;;;3.80;;
40757;SDS011;26462;47.384;19.218;2023-09-08T03:19:12;6.43;;;3.75;;
40757;SDS011;26462;47.384;19.218;2023-09-08T03:21:39;6.10;;;3.90;;
40757;SDS011;26462;47.384;19.218;2023-09-08T03:24:06;6.57;;;4.00;;
40757;SDS011;26462;47.384;19.218;2023-09-08T03:26:33;10.85;;;4.53;;
40757;SDS011;26462;47.384;19.218;2023-09-08T03:29:00;11.43;;;4.53;;
40757;SDS011;26462;47.384;19.218;2023-09-08T03:31:30;6.20;;;3.85;;
40757;SDS011;26462;47.384;19.218;2023-09-08T03:33:57;8.52;;;4.25;;
40757;SDS011;26462;47.384;19.218;2023-09-08T03:36:25;8.32;;;3.85;;
40757;SDS011;26462;47.384;19.218;2023-09-08T03:38:52;6.72;;;4.00;;
40757;SDS011;26462;47.384;19.218;2023-09-08T03:41:19;7.07;;;3.90;;
40757;SDS011;26462;47.384;19.218;2023-09-08T03:43:46;7.88;;;4.53;;
40757;SDS011;26462;47.384;19.218;2023-09-08T03:46:16;8.05;;;4.18;;
40757;SDS011;26462;47.384;19.218;2023-09-08T03:48:43;6.30;;;3.75;;
40757;SDS011;26462;47.384;19.218;2023-09-08T03:51:10;7.47;;;3.83;;
40757;SDS011;26462;47.384;19.218;2023-09-08T03:53:38;7.88;;;3.92;;
40757;SDS011;26462;47.384;19.218;2023-09-08T03:56:06;9.02;;;3.90;;
40757;SDS011;26462;47.384;19.218;2023-09-08T03:58:33;8.23;;;4.22;;
40757;SDS011;26462;47.384;19.218;2023-09-08T04:01:00;7.03;;;4.88;;
40757;SDS011;26462;47.384;19.218;2023-09-08T04:03:27;8.52;;;4.13;;
40757;SDS011;26462;47.384;19.218;2023-09-08T04:05:56;7.82;;;4.38;;
40757;SDS011;26462;47.384;19.218;2023-09-08T04:08:23;8.32;;;4.00;;
40757;SDS011;26462;47.384;19.218;2023-09-08T04:10:51;6.75;;;4.03;;
40757;SDS011;26462;47.384;19.218;2023-09-08T04:13:18;7.57;;;3.95;;
40757;SDS011;26462;47.384;19.218;2023-09-08T04:15:45;9.88;;;4.32;;
40757;SDS011;26462;47.384;19.218;2023-09-08T04:18:12;9.13;;;5.03;;
40757;SDS011;26462;47.384;19.218;2023-09-08T04:20:39;12.68;;;4.88;;
40757;SDS011;26462;47.384;19.218;2023-09-08T04:23:07;8.80;;;4.60;;
40757;SDS011;26462;47.384;19.218;2023-09-08T04:25:34;7.22;;;3.92;;
40757;SDS011;26462;47.384;19.218;2023-09-08T04:28:03;9.50;;;5.10;;
40757;SDS011;26462;47.384;19.218;2023-09-08T04:30:31;10.77;;;4.95;;
40757;SDS011;26462;47.384;19.218;2023-09-08T04:32:59;7.00;;;4.13;;
40757;SDS011;26462;47.384;19.218;2023-09-08T04:35:26;12.60;;;4.90;;
40757;SDS011;26462;47.384;19.218;2023-09-08T04:37:53;8.07;;;5.10;;
40757;SDS011;26462;47.384;19.218;2023-09-08T04:40:20;9.27;;;4.63;;
40757;SDS011;26462;47.384;19.218;2023-09-08T04:42:47;7.55;;;4.68;;
40757;SDS011;26462;47.384;19.218;2023-09-08T04:45:15;11.75;;;4.22;;
40757;SDS011;26462;47.384;19.218;2023-09-08T04:47:42;7.85;;;4.40;;
40757;SDS011;26462;47.384;19.218;2023-09-08T04:50:09;11.32;;;5.07;;
40757;SDS011;26462;47.384;19.218;2023-09-08T04:52:37;9.38;;;4.88;;
40757;SDS011;26462;47.384;19.218;2023-09-08T04:55:05;9.48;;;4.68;;
40757;SDS011;26462;47.384;19.218;2023-09-08T04:57:33;7.03;;;4.20;;
40757;SDS011;26462;47.384;19.218;2023-09-08T05:00:01;10.80;;;4.53;;
40757;SDS011;26462;47.384;19.218;2023-09-08T05:02:29;8.43;;;5.28;;
40757;SDS011;26462;47.384;19.218;2023-09-08T05:05:03;8.05;;;4.40;;
40757;SDS011;26462;47.384;19.218;2023-09-08T05:07:31;9.45;;;4.22;;
40757;SDS011;26462;47.384;19.218;2023-09-08T05:09:59;8.82;;;4.53;;
40757;SDS011;26462;47.384;19.218;2023-09-08T05:12:29;8.63;;;4.80;;
40757;SDS011;26462;47.384;19.218;2023-09-08T05:14:56;8.30;;;4.72;;
40757;SDS011;26462;47.384;19.218;2023-09-08T05:17:28;7.78;;;5.28;;
40757;SDS011;26462;47.384;19.218;2023-09-08T05:19:55;8.70;;;5.07;;
40757;SDS011;26462;47.384;19.218;2023-09-08T05:22:22;9.57;;;4.60;;
40757;SDS011;26462;47.384;19.218;2023-09-08T05:24:53;10.25;;;5.18;;
40757;SDS011;26462;47.384;19.218;2023-09-08T05:27:20;7.93;;;4.85;;
40757;SDS011;26462;47.384;19.218;2023-09-08T05:29:49;9.00;;;4.80;;
40757;SDS011;26462;47.384;19.218;2023-09-08T05:32:16;10.65;;;4.50;;
40757;SDS011;26462;47.384;19.218;2023-09-08T05:34:44;9.32;;;5.05;;
40757;SDS011;26462;47.384;19.218;2023-09-08T05:37:11;12.57;;;5.15;;
40757;SDS011;26462;47.384;19.218;2023-09-08T05:39:39;9.18;;;5.40;;
40757;SDS011;26462;47.384;19.218;2023-09-08T05:42:06;11.13;;;5.13;;
40757;SDS011;26462;47.384;19.218;2023-09-08T05:44:33;9.75;;;5.00;;
40757;SDS011;26462;47.384;19.218;2023-09-08T05:47:01;11.18;;;5.13;;
40757;SDS011;26462;47.384;19.218;2023-09-08T05:49:28;7.63;;;4.38;;
40757;SDS011;26462;47.384;19.218;2023-09-08T05:51:55;9.35;;;5.10;;
40757;SDS011;26462;47.384;19.218;2023-09-08T05:54:23;8.13;;;4.75;;
40757;SDS011;26462;47.384;19.218;2023-09-08T05:56:50;8.45;;;5.10;;
40757;SDS011;26462;47.384;19.218;2023-09-08T05:59:17;9.25;;;5.03;;
40757;SDS011;26462;47.384;19.218;2023-09-08T06:01:44;8.32;;;4.80;;
40757;SDS011;26462;47.384;19.218;2023-09-08T06:04:12;7.32;;;5.00;;
40757;SDS011;26462;47.384;19.218;2023-09-08T06:06:39;8.50;;;4.65;;
40757;SDS011;26462;47.384;19.218;2023-09-08T06:09:07;10.82;;;4.82;;
40757;SDS011;26462;47.384;19.218;2023-09-08T06:11:36;8.35;;;4.93;;
40757;SDS011;26462;47.384;19.218;2023-09-08T06:14:03;7.40;;;4.88;;
40757;SDS011;26462;47.384;19.218;2023-09-08T06:16:36;8.55;;;4.95;;
40757;SDS011;26462;47.384;19.218;2023-09-08T06:19:05;8.02;;;4.50;;
40757;SDS011;26462;47.384;19.218;2023-09-08T06:21:33;9.18;;;5.10;;
40757;SDS011;26462;47.384;19.218;2023-09-08T06:24:00;8.75;;;5.10;;
40757;SDS011;26462;47.384;19.218;2023-09-08T06:26:28;9.63;;;4.32;;
40757;SDS011;26462;47.384;19.218;2023-09-08T06:28:56;9.18;;;4.68;;
40757;SDS011;26462;47.384;19.218;2023-09-08T06:31:23;8.10;;;4.60;;
40757;SDS011;26462;47.384;19.218;2023-09-08T06:33:51;10.88;;;4.60;;
40757;SDS011;26462;47.384;19.218;2023-09-08T06:36:20;8.45;;;4.70;;
40757;SDS011;26462;47.384;19.218;2023-09-08T06:38:47;8.35;;;4.50;;
40757;SDS011;26462;47.384;19.218;2023-09-08T06:41:14;7.43;;;4.28;;
40757;SDS011;26462;47.384;19.218;2023-09-08T06:43:42;8.05;;;4.03;;
40757;SDS011;26462;47.384;19.218;2023-09-08T06:46:14;8.40;;;3.95;;
40757;SDS011;26462;47.384;19.218;2023-09-08T06:48:42;7.88;;;3.95;;
40757;SDS011;26462;47.384;19.218;2023-09-08T06:51:09;7.97;;;4.50;;
40757;SDS011;26462;47.384;19.218;2023-09-08T06:53:38;9.15;;;4.28;;
40757;SDS011;26462;47.384;19.218;2023-09-08T06:56:05;7.57;;;4.05;;
40757;SDS011;26462;47.384;19.218;2023-09-08T06:58:33;7.72;;;4.07;;
40757;SDS011;26462;47.384;19.218;2023-09-08T07:01:02;8.25;;;3.90;;
40757;SDS011;26462;47.384;19.218;2023-09-08T07:03:29;6.45;;;3.90;;
40757;SDS011;26462;47.384;19.218;2023-09-08T07:06:05;6.55;;;3.65;;
40757;SDS011;26462;47.384;19.218;2023-09-08T07:08:33;7.78;;;3.97;;
40757;SDS011;26462;47.384;19.218;2023-09-08T07:11:00;5.07;;;3.35;;
40757;SDS011;26462;47.384;19.218;2023-09-08T07:13:28;8.38;;;4.15;;
40757;SDS011;26462;47.384;19.218;2023-09-08T07:15:57;6.82;;;3.92;;
40757;SDS011;26462;47.384;19.218;2023-09-08T07:18:25;6.35;;;3.63;;
40757;SDS011;26462;47.384;19.218;2023-09-08T07:20:52;8.40;;;4.22;;
40757;SDS011;26462;47.384;19.218;2023-09-08T07:23:20;7.05;;;3.88;;
40757;SDS011;26462;47.384;19.218;2023-09-08T07:25:48;7.28;;;4.10;;
40757;SDS011;26462;47.384;19.218;2023-09-08T07:28:19;6.25;;;3.95;;
40757;SDS011;26462;47.384;19.218;2023-09-08T07:30:49;6.07;;;3.67;;
40757;SDS011;26462;47.384;19.218;2023-09-08T07:33:17;5.07;;;3.58;;
40757;SDS011;26462;47.384;19.218;2023-09-08T07:35:46;5.28;;;3.22;;
40757;SDS011;26462;47.384;19.218;2023-09-08T07:38:13;7.78;;;3.38;;
40757;SDS011;26462;47.384;19.218;2023-09-08T07:40:41;7.65;;;4.57;;
40757;SDS011;26462;47.384;19.218;2023-09-08T07:43:08;6.32;;;3.72;;
40757;SDS011;26462;47.384;19.218;2023-09-08T07:45:35;6.05;;;3.58;;
40757;SDS011;26462;47.384;19.218;2023-09-08T07:48:02;6.53;;;3.85;;
40757;SDS011;26462;47.384;19.218;2023-09-08T07:50:30;5.88;;;3.30;;
40757;SDS011;26462;47.384;19.218;2023-09-08T07:52:58;6.40;;;3.50;;
40757;SDS011;26462;47.384;19.218;2023-09-08T07:55:25;5.78;;;3.75;;
40757;SDS011;26462;47.384;19.218;2023-09-08T07:57:55;7.20;;;3.40;;
40757;SDS011;26462;47.384;19.218;2023-09-08T08:00:24;6.18;;;3.40;;
40757;SDS011;26462;47.384;19.218;2023-09-08T08:02:53;10.88;;;4.63;;
40757;SDS011;26462;47.384;19.218;2023-09-08T08:05:22;5.05;;;3.33;;
40757;SDS011;26462;47.384;19.218;2023-09-08T08:19:52;5.15;;;3.70;;
40757;SDS011;26462;47.384;19.218;2023-09-08T08:22:19;5.80;;;3.58;;
40757;SDS011;26462;47.384;19.218;2023-09-08T08:24:46;5.78;;;3.20;;
40757;SDS011;26462;47.384;19.218;2023-09-08T08:27:13;7.05;;;3.42;;
40757;SDS011;26462;47.384;19.218;2023-09-08T08:29:40;5.28;;;3.60;;
40757;SDS011;26462;47.384;19.218;2023-09-08T08:32:08;7.03;;;3.33;;
40757;SDS011;26462;47.384;19.218;2023-09-08T08:34:35;7.57;;;3.38;;
40757;SDS011;26462;47.384;19.218;2023-09-08T08:37:02;7.78;;;3.83;;
40757;SDS011;26462;47.384;19.218;2023-09-08T08:39:30;7.90;;;3.50;;
40757;SDS011;26462;47.384;19.218;2023-09-08T08:41:57;6.20;;;3.08;;
40757;SDS011;26462;47.384;19.218;2023-09-08T08:44:24;5.38;;;3.22;;
40757;SDS011;26462;47.384;19.218;2023-09-08T08:46:52;5.07;;;3.60;;
40757;SDS011;26462;47.384;19.218;2023-09-08T08:49:22;6.60;;;3.20;;
40757;SDS011;26462;47.384;19.218;2023-09-08T08:51:49;6.60;;;3.20;;
40757;SDS011;26462;47.384;19.218;2023-09-08T08:54:18;5.78;;;3.10;;
40757;SDS011;26462;47.384;19.218;2023-09-08T08:56:46;7.13;;;3.80;;
40757;SDS011;26462;47.384;19.218;2023-09-08T08:59:14;6.03;;;3.03;;
40757;SDS011;26462;47.384;19.218;2023-09-08T09:01:42;5.97;;;3.05;;
40757;SDS011;26462;47.384;19.218;2023-09-08T09:04:11;6.88;;;3.47;;
40757;SDS011;26462;47.384;19.218;2023-09-08T09:06:39;5.75;;;2.67;;
40757;SDS011;26462;47.384;19.218;2023-09-08T09:09:06;5.22;;;2.88;;
40757;SDS011;26462;47.384;19.218;2023-09-08T09:11:34;6.10;;;3.10;;
40757;SDS011;26462;47.384;19.218;2023-09-08T09:14:02;8.35;;;2.90;;
40757;SDS011;26462;47.384;19.218;2023-09-08T09:16:31;5.78;;;3.28;;
40757;SDS011;26462;47.384;19.218;2023-09-08T09:19:08;4.35;;;2.90;;
40757;SDS011;26462;47.384;19.218;2023-09-08T09:24:14;5.28;;;2.67;;
40757;SDS011;26462;47.384;19.218;2023-09-08T09:26:46;9.85;;;3.33;;
40757;SDS011;26462;47.384;19.218;2023-09-08T09:29:13;5.90;;;2.72;;
40757;SDS011;26462;47.384;19.218;2023-09-08T09:31:54;5.40;;;3.40;;
40757;SDS011;26462;47.384;19.218;2023-09-08T09:34:34;5.07;;;3.13;;
40757;SDS011;26462;47.384;19.218;2023-09-08T09:37:01;4.72;;;2.70;;
40757;SDS011;26462;47.384;19.218;2023-09-08T09:39:31;4.68;;;2.83;;
40757;SDS011;26462;47.384;19.218;2023-09-08T09:41:58;4.60;;;2.42;;
40757;SDS011;26462;47.384;19.218;2023-09-08T09:44:26;5.18;;;2.70;;
40757;SDS011;26462;47.384;19.218;2023-09-08T09:46:53;5.50;;;2.80;;
40757;SDS011;26462;47.384;19.218;2023-09-08T09:49:20;4.70;;;2.70;;
40757;SDS011;26462;47.384;19.218;2023-09-08T09:51:49;5.78;;;3.10;;
40757;SDS011;26462;47.384;19.218;2023-09-08T09:54:19;4.85;;;3.33;;
40757;SDS011;26462;47.384;19.218;2023-09-08T09:56:46;5.90;;;3.50;;
40757;SDS011;26462;47.384;19.218;2023-09-08T09:59:17;4.88;;;2.55;;
40757;SDS011;26462;47.384;19.218;2023-09-08T10:01:44;4.72;;;2.85;;
40757;SDS011;26462;47.384;19.218;2023-09-08T10:04:12;6.20;;;3.08;;
40757;SDS011;26462;47.384;19.218;2023-09-08T10:06:42;5.43;;;3.33;;
40757;SDS011;26462;47.384;19.218;2023-09-08T10:09:12;5.10;;;3.22;;
40757;SDS011;26462;47.384;19.218;2023-09-08T10:14:17;5.82;;;3.30;;
40757;SDS011;26462;47.384;19.218;2023-09-08T10:19:16;4.93;;;2.97;;
40757;SDS011;26462;47.384;19.218;2023-09-08T10:21:46;5.80;;;3.28;;
40757;SDS011;26462;47.384;19.218;2023-09-08T10:24:15;6.55;;;3.47;;
40757;SDS011;26462;47.384;19.218;2023-09-08T10:27:11;5.22;;;3.17;;
40757;SDS011;26462;47.384;19.218;2023-09-08T10:29:38;6.50;;;3.15;;
40757;SDS011;26462;47.384;19.218;2023-09-08T10:32:06;4.15;;;2.70;;
40757;SDS011;26462;47.384;19.218;2023-09-08T10:34:38;4.85;;;3.50;;
40757;SDS011;26462;47.384;19.218;2023-09-08T10:37:20;5.03;;;2.45;;
40757;SDS011;26462;47.384;19.218;2023-09-08T10:39:48;4.28;;;2.92;;
40757;SDS011;26462;47.384;19.218;2023-09-08T10:47:19;3.95;;;2.75;;
40757;SDS011;26462;47.384;19.218;2023-09-08T10:49:50;4.72;;;2.50;;
40757;SDS011;26462;47.384;19.218;2023-09-08T10:52:24;4.85;;;2.70;;
40757;SDS011;26462;47.384;19.218;2023-09-08T10:54:52;6.53;;;2.90;;
40757;SDS011;26462;47.384;19.218;2023-09-08T10:57:22;7.18;;;2.70;;
40757;SDS011;26462;47.384;19.218;2023-09-08T10:59:58;5.35;;;2.75;;
40757;SDS011;26462;47.384;19.218;2023-09-08T11:02:41;6.38;;;2.63;;
40757;SDS011;26462;47.384;19.218;2023-09-08T11:05:14;6.45;;;3.60;;
40757;SDS011;26462;47.384;19.218;2023-09-08T11:07:43;3.67;;;2.28;;
40757;SDS011;26462;47.384;19.218;2023-09-08T11:10:12;5.22;;;2.47;;
40757;SDS011;26462;47.384;19.218;2023-09-08T11:12:39;5.32;;;2.78;;
40757;SDS011;26462;47.384;19.218;2023-09-08T11:15:07;5.85;;;2.70;;
40757;SDS011;26462;47.384;19.218;2023-09-08T11:17:35;5.93;;;2.55;;
40757;SDS011;26462;47.384;19.218;2023-09-08T11:20:06;8.07;;;2.88;;
40757;SDS011;26462;47.384;19.218;2023-09-08T11:22:36;4.47;;;2.63;;
40757;SDS011;26462;47.384;19.218;2023-09-08T11:25:08;6.55;;;2.67;;
40757;SDS011;26462;47.384;19.218;2023-09-08T11:27:39;4.65;;;2.40;;
40757;SDS011;26462;47.384;19.218;2023-09-08T11:30:09;5.13;;;2.78;;
40757;SDS011;26462;47.384;19.218;2023-09-08T11:32:38;6.35;;;2.17;;
40757;SDS011;26462;47.384;19.218;2023-09-08T11:35:06;4.28;;;2.30;;
40757;SDS011;26462;47.384;19.218;2023-09-08T11:37:42;3.08;;;2.28;;
40757;SDS011;26462;47.384;19.218;2023-09-08T11:40:09;4.22;;;2.67;;
40757;SDS011;26462;47.384;19.218;2023-09-08T11:42:43;6.38;;;2.63;;
40757;SDS011;26462;47.384;19.218;2023-09-08T11:45:12;5.40;;;2.05;;
40757;SDS011;26462;47.384;19.218;2023-09-08T11:47:41;5.72;;;2.22;;
40757;SDS011;26462;47.384;19.218;2023-09-08T11:50:12;3.78;;;2.42;;
40757;SDS011;26462;47.384;19.218;2023-09-08T11:52:47;6.07;;;2.78;;
40757;SDS011;26462;47.384;19.218;2023-09-08T11:55:15;4.85;;;2.97;;
40757;SDS011;26462;47.384;19.218;2023-09-08T11:57:46;4.10;;;2.45;;
40757;SDS011;26462;47.384;19.218;2023-09-08T12:00:15;3.65;;;2.25;;
40757;SDS011;26462;47.384;19.218;2023-09-08T12:02:44;4.55;;;2.78;;
40757;SDS011;26462;47.384;19.218;2023-09-08T12:05:22;3.60;;;2.50;;
40757;SDS011;26462;47.384;19.218;2023-09-08T12:07:57;3.63;;;2.03;;
40757;SDS011;26462;47.384;19.218;2023-09-08T12:10:25;3.53;;;2.42;;
40757;SDS011;26462;47.384;19.218;2023-09-08T12:12:52;6.47;;;2.40;;
40757;SDS011;26462;47.384;19.218;2023-09-08T12:15:32;4.47;;;2.50;;
40757;SDS011;26462;47.384;19.218;2023-09-08T12:18:00;5.45;;;2.55;;
40757;SDS011;26462;47.384;19.218;2023-09-08T12:20:28;5.80;;;2.33;;
40757;SDS011;26462;47.384;19.218;2023-09-08T12:23:03;6.65;;;2.60;;
40757;SDS011;26462;47.384;19.218;2023-09-08T12:25:32;3.85;;;2.03;;
40757;SDS011;26462;47.384;19.218;2023-09-08T12:28:04;6.45;;;2.40;;
40757;SDS011;26462;47.384;19.218;2023-09-08T12:30:31;3.90;;;2.20;;
40757;SDS011;26462;47.384;19.218;2023-09-08T12:33:00;4.00;;;2.30;;
40757;SDS011;26462;47.384;19.218;2023-09-08T12:35:28;5.97;;;2.50;;
40757;SDS011;26462;47.384;19.218;2023-09-08T12:40:26;5.50;;;2.55;;
40757;SDS011;26462;47.384;19.218;2023-09-08T12:42:54;3.53;;;2.40;;
40757;SDS011;26462;47.384;19.218;2023-09-08T12:45:32;3.35;;;2.28;;
40757;SDS011;26462;47.384;19.218;2023-09-08T12:48:00;4.65;;;2.40;;
40757;SDS011;26462;47.384;19.218;2023-09-08T12:50:29;4.68;;;2.53;;
40757;SDS011;26462;47.384;19.218;2023-09-08T12:52:57;4.93;;;3.15;;
40757;SDS011;26462;47.384;19.218;2023-09-08T12:55:24;5.15;;;2.38;;
40757;SDS011;26462;47.384;19.218;2023-09-08T12:57:51;3.30;;;2.30;;
40757;SDS011;26462;47.384;19.218;2023-09-08T13:00:21;3.67;;;2.30;;
40757;SDS011;26462;47.384;19.218;2023-09-08T13:02:49;5.78;;;2.88;;
40757;SDS011;26462;47.384;19.218;2023-09-08T13:05:18;5.70;;;3.05;;
40757;SDS011;26462;47.384;19.218;2023-09-08T13:07:46;3.95;;;2.58;;
40757;SDS011;26462;47.384;19.218;2023-09-08T13:10:13;5.47;;;2.75;;
40757;SDS011;26462;47.384;19.218;2023-09-08T13:12:41;4.82;;;2.80;;
40757;SDS011;26462;47.384;19.218;2023-09-08T13:15:09;3.30;;;2.60;;
40757;SDS011;26462;47.384;19.218;2023-09-08T13:17:36;3.50;;;2.15;;
40757;SDS011;26462;47.384;19.218;2023-09-08T13:20:04;3.92;;;2.20;;
40757;SDS011;26462;47.384;19.218;2023-09-08T13:22:33;4.60;;;2.28;;
40757;SDS011;26462;47.384;19.218;2023-09-08T13:25:00;3.60;;;2.30;;
40757;SDS011;26462;47.384;19.218;2023-09-08T13:27:28;4.47;;;2.15;;
40757;SDS011;26462;47.384;19.218;2023-09-08T13:30:08;5.45;;;2.38;;
40757;SDS011;26462;47.384;19.218;2023-09-08T13:32:37;6.90;;;2.40;;
40757;SDS011;26462;47.384;19.218;2023-09-08T13:35:06;3.78;;;2.10;;
40757;SDS011;26462;47.384;19.218;2023-09-08T13:37:34;3.97;;;2.25;;
40757;SDS011;26462;47.384;19.218;2023-09-08T13:40:04;3.70;;;2.47;;
40757;SDS011;26462;47.384;19.218;2023-09-08T13:42:34;4.97;;;2.45;;
40757;SDS011;26462;47.384;19.218;2023-09-08T13:45:01;5.75;;;2.53;;
40757;SDS011;26462;47.384;19.218;2023-09-08T13:47:30;3.63;;;2.10;;
40757;SDS011;26462;47.384;19.218;2023-09-08T13:49:59;7.18;;;3.30;;
40757;SDS011;26462;47.384;19.218;2023-09-08T13:52:30;3.97;;;2.40;;
40757;SDS011;26462;47.384;19.218;2023-09-08T13:55:01;5.68;;;2.42;;
40757;SDS011;26462;47.384;19.218;2023-09-08T13:57:32;3.67;;;2.30;;
40757;SDS011;26462;47.384;19.218;2023-09-08T14:00:01;5.53;;;2.72;;
40757;SDS011;26462;47.384;19.218;2023-09-08T14:02:35;4.28;;;2.40;;
40757;SDS011;26462;47.384;19.218;2023-09-08T14:05:10;4.25;;;2.80;;
40757;SDS011;26462;47.384;19.218;2023-09-08T14:07:44;4.22;;;2.60;;
40757;SDS011;26462;47.384;19.218;2023-09-08T14:10:21;4.75;;;2.30;;
40757;SDS011;26462;47.384;19.218;2023-09-08T14:12:51;4.90;;;2.53;;
40757;SDS011;26462;47.384;19.218;2023-09-08T14:15:19;4.85;;;2.58;;
40757;SDS011;26462;47.384;19.218;2023-09-08T14:17:46;3.45;;;2.40;;
40757;SDS011;26462;47.384;19.218;2023-09-08T14:20:14;3.50;;;2.40;;
40757;SDS011;26462;47.384;19.218;2023-09-08T14:22:42;4.43;;;2.30;;
40757;SDS011;26462;47.384;19.218;2023-09-08T14:25:10;4.53;;;2.65;;
40757;SDS011;26462;47.384;19.218;2023-09-08T14:27:38;4.68;;;2.83;;
40757;SDS011;26462;47.384;19.218;2023-09-08T14:30:06;4.05;;;2.00;;
40757;SDS011;26462;47.384;19.218;2023-09-08T14:32:35;4.07;;;2.55;;
40757;SDS011;26462;47.384;19.218;2023-09-08T14:35:03;3.85;;;2.28;;
40757;SDS011;26462;47.384;19.218;2023-09-08T14:37:31;4.20;;;2.88;;
40757;SDS011;26462;47.384;19.218;2023-09-08T14:39:59;4.72;;;2.22;;
40757;SDS011;26462;47.384;19.218;2023-09-08T14:42:26;4.53;;;2.90;;
40757;SDS011;26462;47.384;19.218;2023-09-08T14:44:54;5.13;;;2.78;;
40757;SDS011;26462;47.384;19.218;2023-09-08T14:47:22;3.63;;;2.05;;
40757;SDS011;26462;47.384;19.218;2023-09-08T14:49:50;5.47;;;2.58;;
40757;SDS011;26462;47.384;19.218;2023-09-08T14:52:17;4.90;;;2.90;;
40757;SDS011;26462;47.384;19.218;2023-09-08T14:54:47;3.35;;;2.22;;
40757;SDS011;26462;47.384;19.218;2023-09-08T14:57:15;5.28;;;2.53;;
40757;SDS011;26462;47.384;19.218;2023-09-08T14:59:43;4.63;;;2.72;;
40757;SDS011;26462;47.384;19.218;2023-09-08T15:02:10;5.20;;;2.70;;
40757;SDS011;26462;47.384;19.218;2023-09-08T15:04:38;4.15;;;2.45;;
40757;SDS011;26462;47.384;19.218;2023-09-08T15:07:06;6.07;;;3.08;;
40757;SDS011;26462;47.384;19.218;2023-09-08T15:09:33;3.08;;;2.20;;
40757;SDS011;26462;47.384;19.218;2023-09-08T15:12:01;3.00;;;2.42;;